sensor_id;sensor_type;location;lat;lon;timestamp;temperature;humidity
1626;DHT22;806;48.770;9.156;2023-06-01T00:00:00;18.30;67.00
1626;DHT22;806;48.770;9.156;2023-06-01T00:02:28;18.30;67.80
1626;DHT22;806;48.770;9.156;2023-06-01T00:04:55;18.20;68.10
1626;DHT22;806;48.770;9.156;2023-06-01T00:07:22;18.20;68.90
1626;DHT22;806;48.770;9.156;2023-06-01T00:09:50;18.20;69.10
1626;DHT22;806;48.770;9.156;2023-06-01T00:12:18;18.10;69.40
1626;DHT22;806;48.770;9.156;2023-06-01T00:14:45;18.10;69.70
1626;DHT22;806;48.770;9.156;2023-06-01T00:17:12;17.90;69.90
1626;DHT22;806;48.770;9.156;2023-06-01T00:19:39;17.80;70.20
1626;DHT22;806;48.770;9.156;2023-06-01T00:22:07;17.80;71.50
1626;DHT22;806;48.770;9.156;2023-06-01T00:24:34;17.80;72.30
1626;DHT22;806;48.770;9.156;2023-06-01T00:27:01;17.90;73.30
1626;DHT22;806;48.770;9.156;2023-06-01T00:29:29;17.90;73.50
1626;DHT22;806;48.770;9.156;2023-06-01T00:31:56;18.00;73.60
1626;DHT22;806;48.770;9.156;2023-06-01T00:34:23;17.80;73.40
1626;DHT22;806;48.770;9.156;2023-06-01T00:36:50;17.70;73.60
1626;DHT22;806;48.770;9.156;2023-06-01T00:39:17;17.70;74.30
1626;DHT22;806;48.770;9.156;2023-06-01T00:41:44;17.60;74.50
1626;DHT22;806;48.770;9.156;2023-06-01T00:44:11;17.50;75.20
1626;DHT22;806;48.770;9.156;2023-06-01T00:46:40;17.50;77.10
1626;DHT22;806;48.770;9.156;2023-06-01T00:49:07;17.50;77.70
1626;DHT22;806;48.770;9.156;2023-06-01T00:51:34;17.50;78.20
1626;DHT22;806;48.770;9.156;2023-06-01T00:54:01;17.40;78.60
1626;DHT22;806;48.770;9.156;2023-06-01T00:56:28;17.40;79.30
1626;DHT22;806;48.770;9.156;2023-06-01T00:58:57;17.40;79.50
1626;DHT22;806;48.770;9.156;2023-06-01T01:01:24;17.40;80.20
1626;DHT22;806;48.770;9.156;2023-06-01T01:03:52;17.30;80.20
1626;DHT22;806;48.770;9.156;2023-06-01T01:06:40;17.30;80.50
1626;DHT22;806;48.770;9.156;2023-06-01T01:09:21;17.30;80.30
1626;DHT22;806;48.770;9.156;2023-06-01T01:11:54;17.40;80.40
1626;DHT22;806;48.770;9.156;2023-06-01T01:14:25;17.40;80.80
1626;DHT22;806;48.770;9.156;2023-06-01T01:16:57;17.50;81.20
1626;DHT22;806;48.770;9.156;2023-06-01T01:19:50;17.50;81.10
1626;DHT22;806;48.770;9.156;2023-06-01T01:22:25;17.40;82.10
1626;DHT22;806;48.770;9.156;2023-06-01T01:25:11;17.30;82.70
1626;DHT22;806;48.770;9.156;2023-06-01T01:28:09;17.20;83.40
1626;DHT22;806;48.770;9.156;2023-06-01T01:30:41;17.10;84.50
1626;DHT22;806;48.770;9.156;2023-06-01T01:33:09;17.10;85.00
1626;DHT22;806;48.770;9.156;2023-06-01T01:35:37;17.00;85.80
1626;DHT22;806;48.770;9.156;2023-06-01T01:38:05;17.00;86.20
1626;DHT22;806;48.770;9.156;2023-06-01T01:40:32;17.00;86.80
1626;DHT22;806;48.770;9.156;2023-06-01T01:43:00;17.00;87.90
1626;DHT22;806;48.770;9.156;2023-06-01T01:45:28;17.00;87.80
1626;DHT22;806;48.770;9.156;2023-06-01T01:48:04;16.80;88.20
1626;DHT22;806;48.770;9.156;2023-06-01T01:50:37;16.70;88.90
1626;DHT22;806;48.770;9.156;2023-06-01T01:53:06;16.70;90.00
1626;DHT22;806;48.770;9.156;2023-06-01T01:55:36;16.70;90.20
1626;DHT22;806;48.770;9.156;2023-06-01T01:58:03;16.70;90.50
1626;DHT22;806;48.770;9.156;2023-06-01T02:00:31;16.60;91.30
1626;DHT22;806;48.770;9.156;2023-06-01T02:03:00;16.60;92.10
1626;DHT22;806;48.770;9.156;2023-06-01T02:05:27;16.60;92.30
1626;DHT22;806;48.770;9.156;2023-06-01T02:07:54;16.70;92.80
1626;DHT22;806;48.770;9.156;2023-06-01T02:10:21;16.70;92.70
1626;DHT22;806;48.770;9.156;2023-06-01T02:12:48;16.80;93.30
1626;DHT22;806;48.770;9.156;2023-06-01T02:15:15;16.80;93.10
1626;DHT22;806;48.770;9.156;2023-06-01T02:17:42;16.70;93.60
1626;DHT22;806;48.770;9.156;2023-06-01T02:20:11;16.60;93.90
1626;DHT22;806;48.770;9.156;2023-06-01T02:22:38;16.60;95.40
1626;DHT22;806;48.770;9.156;2023-06-01T02:25:06;16.50;96.00
1626;DHT22;806;48.770;9.156;2023-06-01T02:27:33;16.50;96.80
1626;DHT22;806;48.770;9.156;2023-06-01T02:30:00;16.50;97.50
1626;DHT22;806;48.770;9.156;2023-06-01T02:32:27;16.50;98.20
1626;DHT22;806;48.770;9.156;2023-06-01T02:34:56;16.50;98.30
1626;DHT22;806;48.770;9.156;2023-06-01T02:37:24;16.50;98.60
1626;DHT22;806;48.770;9.156;2023-06-01T02:39:51;16.40;99.30
1626;DHT22;806;48.770;9.156;2023-06-01T02:42:18;16.40;99.10
1626;DHT22;806;48.770;9.156;2023-06-01T02:44:45;16.40;99.20
1626;DHT22;806;48.770;9.156;2023-06-01T02:47:12;16.30;99.90
1626;DHT22;806;48.770;9.156;2023-06-01T02:49:40;16.20;99.90
1626;DHT22;806;48.770;9.156;2023-06-01T02:52:07;16.10;99.90
1626;DHT22;806;48.770;9.156;2023-06-01T02:54:35;15.90;99.90
1626;DHT22;806;48.770;9.156;2023-06-01T02:57:03;15.90;99.90
1626;DHT22;806;48.770;9.156;2023-06-01T02:59:31;15.90;99.90
1626;DHT22;806;48.770;9.156;2023-06-01T03:01:58;15.80;99.90
1626;DHT22;806;48.770;9.156;2023-06-01T03:04:25;15.80;99.90
1626;DHT22;806;48.770;9.156;2023-06-01T03:06:54;15.90;99.90
1626;DHT22;806;48.770;9.156;2023-06-01T03:09:22;15.80;99.90
1626;DHT22;806;48.770;9.156;2023-06-01T03:11:50;15.80;99.90
1626;DHT22;806;48.770;9.156;2023-06-01T03:14:17;15.90;99.90
1626;DHT22;806;48.770;9.156;2023-06-01T03:16:44;15.90;99.90
1626;DHT22;806;48.770;9.156;2023-06-01T03:19:11;16.00;99.90
1626;DHT22;806;48.770;9.156;2023-06-01T03:21:39;16.00;99.90
1626;DHT22;806;48.770;9.156;2023-06-01T03:24:06;15.90;99.90
1626;DHT22;806;48.770;9.156;2023-06-01T03:26:33;15.90;99.90
1626;DHT22;806;48.770;9.156;2023-06-01T03:29:02;15.80;99.90
1626;DHT22;806;48.770;9.156;2023-06-01T03:31:30;15.70;99.90
1626;DHT22;806;48.770;9.156;2023-06-01T03:34:00;15.70;99.90
1626;DHT22;806;48.770;9.156;2023-06-01T03:36:27;15.60;99.90
1626;DHT22;806;48.770;9.156;2023-06-01T03:38:54;15.60;99.90
1626;DHT22;806;48.770;9.156;2023-06-01T03:41:21;15.60;99.90
1626;DHT22;806;48.770;9.156;2023-06-01T03:43:48;15.60;99.90
1626;DHT22;806;48.770;9.156;2023-06-01T03:46:17;15.70;99.90
1626;DHT22;806;48.770;9.156;2023-06-01T03:48:44;15.70;99.90
1626;DHT22;806;48.770;9.156;2023-06-01T03:51:11;15.70;99.90
1626;DHT22;806;48.770;9.156;2023-06-01T03:53:38;15.80;99.90
1626;DHT22;806;48.770;9.156;2023-06-01T03:56:05;15.80;99.90
1626;DHT22;806;48.770;9.156;2023-06-01T03:58:32;15.70;99.90
1626;DHT22;806;48.770;9.156;2023-06-01T04:00:59;15.70;99.90
1626;DHT22;806;48.770;9.156;2023-06-01T04:03:30;15.70;99.90
1626;DHT22;806;48.770;9.156;2023-06-01T04:05:58;15.80;99.90
1626;DHT22;806;48.770;9.156;2023-06-01T04:08:27;15.70;99.90
1626;DHT22;806;48.770;9.156;2023-06-01T04:10:55;15.70;99.90
1626;DHT22;806;48.770;9.156;2023-06-01T04:13:22;15.70;99.90
1626;DHT22;806;48.770;9.156;2023-06-01T04:15:49;15.70;99.90
1626;DHT22;806;48.770;9.156;2023-06-01T04:18:16;15.70;99.90
1626;DHT22;806;48.770;9.156;2023-06-01T04:20:44;15.70;99.90
1626;DHT22;806;48.770;9.156;2023-06-01T04:23:11;15.70;99.90
1626;DHT22;806;48.770;9.156;2023-06-01T04:25:38;15.60;99.90
1626;DHT22;806;48.770;9.156;2023-06-01T04:28:06;15.70;99.90
1626;DHT22;806;48.770;9.156;2023-06-01T04:30:33;15.50;99.90
1626;DHT22;806;48.770;9.156;2023-06-01T04:33:01;15.50;99.90
1626;DHT22;806;48.770;9.156;2023-06-01T04:35:28;15.40;99.90
1626;DHT22;806;48.770;9.156;2023-06-01T04:37:57;15.40;99.90
1626;DHT22;806;48.770;9.156;2023-06-01T04:40:24;15.50;99.90
1626;DHT22;806;48.770;9.156;2023-06-01T04:42:51;15.60;99.90
1626;DHT22;806;48.770;9.156;2023-06-01T04:45:21;15.70;99.90
1626;DHT22;806;48.770;9.156;2023-06-01T04:47:49;15.70;99.90
1626;DHT22;806;48.770;9.156;2023-06-01T04:50:16;15.80;99.90
1626;DHT22;806;48.770;9.156;2023-06-01T04:52:43;15.70;99.90
1626;DHT22;806;48.770;9.156;2023-06-01T04:55:12;15.80;99.90
1626;DHT22;806;48.770;9.156;2023-06-01T04:57:40;15.80;99.90
1626;DHT22;806;48.770;9.156;2023-06-01T05:00:11;15.80;99.90
1626;DHT22;806;48.770;9.156;2023-06-01T05:02:40;15.90;99.90
1626;DHT22;806;48.770;9.156;2023-06-01T05:05:08;16.00;99.90
1626;DHT22;806;48.770;9.156;2023-06-01T05:07:36;16.00;99.90
1626;DHT22;806;48.770;9.156;2023-06-01T05:10:05;16.10;99.90
1626;DHT22;806;48.770;9.156;2023-06-01T05:12:35;16.20;99.90
1626;DHT22;806;48.770;9.156;2023-06-01T05:15:04;16.20;99.90
1626;DHT22;806;48.770;9.156;2023-06-01T05:17:31;16.40;99.90
1626;DHT22;806;48.770;9.156;2023-06-01T05:19:58;16.40;99.90
1626;DHT22;806;48.770;9.156;2023-06-01T05:22:25;16.50;99.90
1626;DHT22;806;48.770;9.156;2023-06-01T05:24:52;16.40;99.90
1626;DHT22;806;48.770;9.156;2023-06-01T05:27:20;16.40;99.90
1626;DHT22;806;48.770;9.156;2023-06-01T05:29:49;16.30;99.90
1626;DHT22;806;48.770;9.156;2023-06-01T05:32:16;16.30;99.90
1626;DHT22;806;48.770;9.156;2023-06-01T05:34:43;16.30;99.90
1626;DHT22;806;48.770;9.156;2023-06-01T05:37:10;16.40;99.90
1626;DHT22;806;48.770;9.156;2023-06-01T05:39:37;16.40;99.90
1626;DHT22;806;48.770;9.156;2023-06-01T05:42:05;16.50;99.90
1626;DHT22;806;48.770;9.156;2023-06-01T05:44:32;16.60;99.90
1626;DHT22;806;48.770;9.156;2023-06-01T05:47:00;16.70;99.90
1626;DHT22;806;48.770;9.156;2023-06-01T05:49:27;16.70;99.90
1626;DHT22;806;48.770;9.156;2023-06-01T05:51:57;16.90;99.90
1626;DHT22;806;48.770;9.156;2023-06-01T05:54:24;17.00;99.90
1626;DHT22;806;48.770;9.156;2023-06-01T05:56:51;17.10;99.90
1626;DHT22;806;48.770;9.156;2023-06-01T05:59:18;17.20;99.90
1626;DHT22;806;48.770;9.156;2023-06-01T06:01:45;17.20;99.90
1626;DHT22;806;48.770;9.156;2023-06-01T06:04:15;17.30;99.90
1626;DHT22;806;48.770;9.156;2023-06-01T06:06:42;17.30;99.90
1626;DHT22;806;48.770;9.156;2023-06-01T06:09:09;17.50;99.90
1626;DHT22;806;48.770;9.156;2023-06-01T06:11:39;17.70;99.90
1626;DHT22;806;48.770;9.156;2023-06-01T06:14:06;17.90;99.90
1626;DHT22;806;48.770;9.156;2023-06-01T06:16:33;17.80;99.90
1626;DHT22;806;48.770;9.156;2023-06-01T06:19:00;17.60;99.90
1626;DHT22;806;48.770;9.156;2023-06-01T06:21:29;17.60;99.90
1626;DHT22;806;48.770;9.156;2023-06-01T06:23:57;17.70;99.90
1626;DHT22;806;48.770;9.156;2023-06-01T06:26:24;17.80;99.90
1626;DHT22;806;48.770;9.156;2023-06-01T06:28:52;18.00;99.90
1626;DHT22;806;48.770;9.156;2023-06-01T06:31:19;18.30;99.90
1626;DHT22;806;48.770;9.156;2023-06-01T06:33:46;18.40;99.90
1626;DHT22;806;48.770;9.156;2023-06-01T06:36:14;18.40;99.90
1626;DHT22;806;48.770;9.156;2023-06-01T06:38:43;18.40;99.90
1626;DHT22;806;48.770;9.156;2023-06-01T06:41:10;18.50;99.90
1626;DHT22;806;48.770;9.156;2023-06-01T06:43:37;18.50;99.90
1626;DHT22;806;48.770;9.156;2023-06-01T06:46:04;18.50;99.90
1626;DHT22;806;48.770;9.156;2023-06-01T06:48:31;18.60;99.90
1626;DHT22;806;48.770;9.156;2023-06-01T06:50:58;18.70;99.90
1626;DHT22;806;48.770;9.156;2023-06-01T06:53:25;18.70;99.90
1626;DHT22;806;48.770;9.156;2023-06-01T06:55:54;18.80;99.90
1626;DHT22;806;48.770;9.156;2023-06-01T06:58:21;19.00;99.90
1626;DHT22;806;48.770;9.156;2023-06-01T07:00:48;19.10;99.90
1626;DHT22;806;48.770;9.156;2023-06-01T07:03:16;19.10;99.90
1626;DHT22;806;48.770;9.156;2023-06-01T07:05:43;19.30;99.90
1626;DHT22;806;48.770;9.156;2023-06-01T07:08:11;19.40;99.90
1626;DHT22;806;48.770;9.156;2023-06-01T07:10:38;19.40;99.90
1626;DHT22;806;48.770;9.156;2023-06-01T07:13:06;19.40;99.90
1626;DHT22;806;48.770;9.156;2023-06-01T07:15:33;19.60;99.90
1626;DHT22;806;48.770;9.156;2023-06-01T07:18:00;19.60;99.90
1626;DHT22;806;48.770;9.156;2023-06-01T07:20:27;19.60;99.90
1626;DHT22;806;48.770;9.156;2023-06-01T07:22:54;19.70;99.90
1626;DHT22;806;48.770;9.156;2023-06-01T07:25:22;19.70;99.90
1626;DHT22;806;48.770;9.156;2023-06-01T07:27:49;19.90;99.90
1626;DHT22;806;48.770;9.156;2023-06-01T07:30:18;20.10;99.90
1626;DHT22;806;48.770;9.156;2023-06-01T07:32:45;20.20;99.90
1626;DHT22;806;48.770;9.156;2023-06-01T07:35:12;20.30;99.90
1626;DHT22;806;48.770;9.156;2023-06-01T07:37:39;20.50;99.90
1626;DHT22;806;48.770;9.156;2023-06-01T07:40:07;20.50;99.90
1626;DHT22;806;48.770;9.156;2023-06-01T07:42:34;20.70;99.90
1626;DHT22;806;48.770;9.156;2023-06-01T07:45:02;20.80;99.90
1626;DHT22;806;48.770;9.156;2023-06-01T07:47:30;20.90;99.70
1626;DHT22;806;48.770;9.156;2023-06-01T07:49:57;21.00;99.70
1626;DHT22;806;48.770;9.156;2023-06-01T07:52:24;21.10;99.30
1626;DHT22;806;48.770;9.156;2023-06-01T07:54:51;21.00;99.40
1626;DHT22;806;48.770;9.156;2023-06-01T07:57:19;21.00;98.70
1626;DHT22;806;48.770;9.156;2023-06-01T07:59:46;21.00;98.80
1626;DHT22;806;48.770;9.156;2023-06-01T08:02:13;21.10;98.40
1626;DHT22;806;48.770;9.156;2023-06-01T08:04:41;21.30;98.20
1626;DHT22;806;48.770;9.156;2023-06-01T08:07:09;21.40;97.80
1626;DHT22;806;48.770;9.156;2023-06-01T08:09:38;21.50;97.30
1626;DHT22;806;48.770;9.156;2023-06-01T08:12:05;21.60;97.00
1626;DHT22;806;48.770;9.156;2023-06-01T08:14:33;21.80;96.40
1626;DHT22;806;48.770;9.156;2023-06-01T08:17:01;21.90;96.00
1626;DHT22;806;48.770;9.156;2023-06-01T08:19:28;21.90;96.00
1626;DHT22;806;48.770;9.156;2023-06-01T08:21:58;22.00;95.50
1626;DHT22;806;48.770;9.156;2023-06-01T08:24:25;22.00;95.00
1626;DHT22;806;48.770;9.156;2023-06-01T08:26:54;22.00;95.20
1626;DHT22;806;48.770;9.156;2023-06-01T08:29:23;22.20;95.00
1626;DHT22;806;48.770;9.156;2023-06-01T08:31:49;22.40;94.80
1626;DHT22;806;48.770;9.156;2023-06-01T08:34:16;22.50;94.30
1626;DHT22;806;48.770;9.156;2023-06-01T08:36:43;22.60;93.90
1626;DHT22;806;48.770;9.156;2023-06-01T08:39:22;22.50;93.60
1626;DHT22;806;48.770;9.156;2023-06-01T08:42:04;22.50;93.90
1626;DHT22;806;48.770;9.156;2023-06-01T08:44:35;22.50;93.80
1626;DHT22;806;48.770;9.156;2023-06-01T08:47:03;22.40;93.40
1626;DHT22;806;48.770;9.156;2023-06-01T08:49:31;22.40;93.50
1626;DHT22;806;48.770;9.156;2023-06-01T08:52:00;22.60;93.40
1626;DHT22;806;48.770;9.156;2023-06-01T08:54:28;23.00;92.70
1626;DHT22;806;48.770;9.156;2023-06-01T08:56:58;23.00;91.80
1626;DHT22;806;48.770;9.156;2023-06-01T08:59:26;22.90;91.20
1626;DHT22;806;48.770;9.156;2023-06-01T09:01:53;23.00;91.60
1626;DHT22;806;48.770;9.156;2023-06-01T09:04:20;23.30;90.70
1626;DHT22;806;48.770;9.156;2023-06-01T09:06:47;23.30;90.00
1626;DHT22;806;48.770;9.156;2023-06-01T09:09:14;23.10;89.90
1626;DHT22;806;48.770;9.156;2023-06-01T09:11:43;23.20;90.60
1626;DHT22;806;48.770;9.156;2023-06-01T09:14:19;23.20;90.00
1626;DHT22;806;48.770;9.156;2023-06-01T09:16:48;23.40;90.20
1626;DHT22;806;48.770;9.156;2023-06-01T09:19:15;23.60;88.70
1626;DHT22;806;48.770;9.156;2023-06-01T09:21:55;23.80;88.30
1626;DHT22;806;48.770;9.156;2023-06-01T09:24:23;24.10;86.80
1626;DHT22;806;48.770;9.156;2023-06-01T09:26:58;24.00;85.10
1626;DHT22;806;48.770;9.156;2023-06-01T09:29:26;24.00;85.10
1626;DHT22;806;48.770;9.156;2023-06-01T09:31:53;24.20;84.70
1626;DHT22;806;48.770;9.156;2023-06-01T09:34:21;24.20;83.40
1626;DHT22;806;48.770;9.156;2023-06-01T09:36:49;24.00;84.60
1626;DHT22;806;48.770;9.156;2023-06-01T09:39:18;24.30;84.10
1626;DHT22;806;48.770;9.156;2023-06-01T09:41:50;24.30;82.60
1626;DHT22;806;48.770;9.156;2023-06-01T09:44:26;24.30;82.80
1626;DHT22;806;48.770;9.156;2023-06-01T09:46:55;24.50;83.50
1626;DHT22;806;48.770;9.156;2023-06-01T09:49:23;24.70;82.30
1626;DHT22;806;48.770;9.156;2023-06-01T09:51:52;25.00;82.10
1626;DHT22;806;48.770;9.156;2023-06-01T09:54:24;25.10;81.10
1626;DHT22;806;48.770;9.156;2023-06-01T09:56:52;25.10;80.10
1626;DHT22;806;48.770;9.156;2023-06-01T09:59:20;25.40;79.30
1626;DHT22;806;48.770;9.156;2023-06-01T10:01:51;25.50;78.90
1626;DHT22;806;48.770;9.156;2023-06-01T10:04:21;25.90;76.70
1626;DHT22;806;48.770;9.156;2023-06-01T10:06:50;26.00;76.10
1626;DHT22;806;48.770;9.156;2023-06-01T10:09:21;26.10;75.60
1626;DHT22;806;48.770;9.156;2023-06-01T10:11:51;26.20;75.00
1626;DHT22;806;48.770;9.156;2023-06-01T10:14:20;26.10;74.40
1626;DHT22;806;48.770;9.156;2023-06-01T10:16:50;26.20;72.50
1626;DHT22;806;48.770;9.156;2023-06-01T10:19:18;26.40;73.00
1626;DHT22;806;48.770;9.156;2023-06-01T10:21:46;26.50;70.70
1626;DHT22;806;48.770;9.156;2023-06-01T10:24:14;26.50;68.40
1626;DHT22;806;48.770;9.156;2023-06-01T10:26:56;26.50;68.20
1626;DHT22;806;48.770;9.156;2023-06-01T10:29:25;26.40;68.70
1626;DHT22;806;48.770;9.156;2023-06-01T10:31:55;26.90;67.10
1626;DHT22;806;48.770;9.156;2023-06-01T10:34:40;27.40;64.00
1626;DHT22;806;48.770;9.156;2023-06-01T10:37:17;27.60;60.30
1626;DHT22;806;48.770;9.156;2023-06-01T10:39:44;27.70;58.50
1626;DHT22;806;48.770;9.156;2023-06-01T10:42:37;28.00;57.70
1626;DHT22;806;48.770;9.156;2023-06-01T10:45:06;28.10;55.30
1626;DHT22;806;48.770;9.156;2023-06-01T10:47:50;27.90;54.30
1626;DHT22;806;48.770;9.156;2023-06-01T10:50:17;28.20;54.80
1626;DHT22;806;48.770;9.156;2023-06-01T10:52:45;28.40;54.40
1626;DHT22;806;48.770;9.156;2023-06-01T10:55:21;28.70;54.10
1626;DHT22;806;48.770;9.156;2023-06-01T10:57:49;28.60;52.60
1626;DHT22;806;48.770;9.156;2023-06-01T11:00:18;28.20;54.10
1626;DHT22;806;48.770;9.156;2023-06-01T11:02:55;27.90;54.30
1626;DHT22;806;48.770;9.156;2023-06-01T11:05:39;27.40;54.20
1626;DHT22;806;48.770;9.156;2023-06-01T11:08:07;27.50;55.50
1626;DHT22;806;48.770;9.156;2023-06-01T11:10:54;27.70;54.60
1626;DHT22;806;48.770;9.156;2023-06-01T11:13:22;27.80;54.20
1626;DHT22;806;48.770;9.156;2023-06-01T11:16:31;27.80;52.70
1626;DHT22;806;48.770;9.156;2023-06-01T11:19:01;28.10;52.80
1626;DHT22;806;48.770;9.156;2023-06-01T11:21:31;28.30;51.80
1626;DHT22;806;48.770;9.156;2023-06-01T11:24:00;28.80;50.90
1626;DHT22;806;48.770;9.156;2023-06-01T11:26:31;29.10;51.20
1626;DHT22;806;48.770;9.156;2023-06-01T11:29:17;29.10;51.00
1626;DHT22;806;48.770;9.156;2023-06-01T11:31:46;29.10;51.00
1626;DHT22;806;48.770;9.156;2023-06-01T11:34:15;29.30;50.00
1626;DHT22;806;48.770;9.156;2023-06-01T11:36:45;29.10;49.20
1626;DHT22;806;48.770;9.156;2023-06-01T11:39:20;29.30;49.90
1626;DHT22;806;48.770;9.156;2023-06-01T11:41:53;29.50;49.50
1626;DHT22;806;48.770;9.156;2023-06-01T11:44:29;29.40;48.40
1626;DHT22;806;48.770;9.156;2023-06-01T11:46:57;29.20;48.70
1626;DHT22;806;48.770;9.156;2023-06-01T11:49:26;29.40;48.80
1626;DHT22;806;48.770;9.156;2023-06-01T11:51:53;29.30;49.00
1626;DHT22;806;48.770;9.156;2023-06-01T11:54:22;29.80;48.80
1626;DHT22;806;48.770;9.156;2023-06-01T11:56:50;29.80;48.50
1626;DHT22;806;48.770;9.156;2023-06-01T11:59:18;30.10;48.10
1626;DHT22;806;48.770;9.156;2023-06-01T12:01:47;30.40;47.60
1626;DHT22;806;48.770;9.156;2023-06-01T12:04:15;30.10;46.70
1626;DHT22;806;48.770;9.156;2023-06-01T12:06:45;29.90;47.00
1626;DHT22;806;48.770;9.156;2023-06-01T12:09:12;29.90;47.60
1626;DHT22;806;48.770;9.156;2023-06-01T12:11:41;30.10;46.90
1626;DHT22;806;48.770;9.156;2023-06-01T12:14:10;30.70;44.60
1626;DHT22;806;48.770;9.156;2023-06-01T12:16:54;30.60;43.30
1626;DHT22;806;48.770;9.156;2023-06-01T12:19:22;30.60;43.40
1626;DHT22;806;48.770;9.156;2023-06-01T12:21:51;30.50;43.80
1626;DHT22;806;48.770;9.156;2023-06-01T12:24:25;30.10;43.00
1626;DHT22;806;48.770;9.156;2023-06-01T12:26:54;30.10;43.30
1626;DHT22;806;48.770;9.156;2023-06-01T12:29:37;30.20;43.00
1626;DHT22;806;48.770;9.156;2023-06-01T12:32:05;29.90;43.50
1626;DHT22;806;48.770;9.156;2023-06-01T12:34:33;30.30;42.90
1626;DHT22;806;48.770;9.156;2023-06-01T12:37:12;30.60;40.10
1626;DHT22;806;48.770;9.156;2023-06-01T12:39:39;30.50;37.30
1626;DHT22;806;48.770;9.156;2023-06-01T12:42:08;30.30;40.00
1626;DHT22;806;48.770;9.156;2023-06-01T12:44:36;30.10;40.70
1626;DHT22;806;48.770;9.156;2023-06-01T12:47:03;30.40;40.60
1626;DHT22;806;48.770;9.156;2023-06-01T12:49:30;30.50;41.10
1626;DHT22;806;48.770;9.156;2023-06-01T12:51:58;30.60;39.70
1626;DHT22;806;48.770;9.156;2023-06-01T12:54:26;30.60;40.40
1626;DHT22;806;48.770;9.156;2023-06-01T12:56:53;30.80;39.20
1626;DHT22;806;48.770;9.156;2023-06-01T12:59:21;30.80;40.40
1626;DHT22;806;48.770;9.156;2023-06-01T13:01:48;31.10;41.20
1626;DHT22;806;48.770;9.156;2023-06-01T13:04:15;31.20;41.60
1626;DHT22;806;48.770;9.156;2023-06-01T13:06:42;30.90;42.50
1626;DHT22;806;48.770;9.156;2023-06-01T13:09:10;31.00;43.00
1626;DHT22;806;48.770;9.156;2023-06-01T13:11:41;31.00;44.20
1626;DHT22;806;48.770;9.156;2023-06-01T13:14:08;31.30;43.40
1626;DHT22;806;48.770;9.156;2023-06-01T13:16:35;30.80;43.90
1626;DHT22;806;48.770;9.156;2023-06-01T13:19:02;30.70;44.50
1626;DHT22;806;48.770;9.156;2023-06-01T13:21:30;30.90;44.60
1626;DHT22;806;48.770;9.156;2023-06-01T13:23:59;30.80;44.70
1626;DHT22;806;48.770;9.156;2023-06-01T13:26:26;31.00;44.70
1626;DHT22;806;48.770;9.156;2023-06-01T13:28:55;31.10;44.40
1626;DHT22;806;48.770;9.156;2023-06-01T13:31:22;31.20;44.20
1626;DHT22;806;48.770;9.156;2023-06-01T13:33:50;31.30;44.20
1626;DHT22;806;48.770;9.156;2023-06-01T13:36:17;31.60;43.60
1626;DHT22;806;48.770;9.156;2023-06-01T13:38:44;31.40;43.70
1626;DHT22;806;48.770;9.156;2023-06-01T13:41:11;30.60;43.80
1626;DHT22;806;48.770;9.156;2023-06-01T13:43:38;30.50;44.50
1626;DHT22;806;48.770;9.156;2023-06-01T13:46:07;30.60;44.10
1626;DHT22;806;48.770;9.156;2023-06-01T13:48:35;30.60;44.00
1626;DHT22;806;48.770;9.156;2023-06-01T13:51:03;30.70;43.90
1626;DHT22;806;48.770;9.156;2023-06-01T13:53:31;30.70;43.20
1626;DHT22;806;48.770;9.156;2023-06-01T13:55:58;30.20;43.50
1626;DHT22;806;48.770;9.156;2023-06-01T13:58:25;30.10;44.20
1626;DHT22;806;48.770;9.156;2023-06-01T14:00:52;30.10;44.10
1626;DHT22;806;48.770;9.156;2023-06-01T14:03:21;29.90;44.00
1626;DHT22;806;48.770;9.156;2023-06-01T14:05:48;29.90;44.20
1626;DHT22;806;48.770;9.156;2023-06-01T14:08:15;30.00;43.50
1626;DHT22;806;48.770;9.156;2023-06-01T14:10:42;29.90;43.00
1626;DHT22;806;48.770;9.156;2023-06-01T14:13:09;30.10;43.20
1626;DHT22;806;48.770;9.156;2023-06-01T14:15:36;30.40;42.50
1626;DHT22;806;48.770;9.156;2023-06-01T14:18:03;30.60;41.50
1626;DHT22;806;48.770;9.156;2023-06-01T14:20:32;30.30;41.40
1626;DHT22;806;48.770;9.156;2023-06-01T14:23:00;30.20;41.10
1626;DHT22;806;48.770;9.156;2023-06-01T14:25:28;30.00;41.30
1626;DHT22;806;48.770;9.156;2023-06-01T14:27:55;29.50;42.00
1626;DHT22;806;48.770;9.156;2023-06-01T14:30:22;29.50;42.30
1626;DHT22;806;48.770;9.156;2023-06-01T14:32:52;29.70;41.90
1626;DHT22;806;48.770;9.156;2023-06-01T14:35:19;29.90;41.40
1626;DHT22;806;48.770;9.156;2023-06-01T14:37:47;29.60;41.10
1626;DHT22;806;48.770;9.156;2023-06-01T14:40:14;29.50;41.10
1626;DHT22;806;48.770;9.156;2023-06-01T14:42:42;29.50;41.00
1626;DHT22;806;48.770;9.156;2023-06-01T14:45:09;29.50;41.50
1626;DHT22;806;48.770;9.156;2023-06-01T14:47:37;29.80;40.60
1626;DHT22;806;48.770;9.156;2023-06-01T14:50:07;29.30;40.50
1626;DHT22;806;48.770;9.156;2023-06-01T14:52:34;29.20;40.40
1626;DHT22;806;48.770;9.156;2023-06-01T14:55:03;29.20;40.60
1626;DHT22;806;48.770;9.156;2023-06-01T14:57:30;29.30;41.10
1626;DHT22;806;48.770;9.156;2023-06-01T14:59:57;29.20;41.10
1626;DHT22;806;48.770;9.156;2023-06-01T15:02:24;29.40;41.60
1626;DHT22;806;48.770;9.156;2023-06-01T15:04:51;29.20;41.80
1626;DHT22;806;48.770;9.156;2023-06-01T15:07:18;29.00;41.50
1626;DHT22;806;48.770;9.156;2023-06-01T15:09:45;28.70;41.60
1626;DHT22;806;48.770;9.156;2023-06-01T15:12:14;28.50;42.10
1626;DHT22;806;48.770;9.156;2023-06-01T15:14:41;28.70;42.20
1626;DHT22;806;48.770;9.156;2023-06-01T15:17:08;28.80;42.30
1626;DHT22;806;48.770;9.156;2023-06-01T15:19:35;28.80;41.90
1626;DHT22;806;48.770;9.156;2023-06-01T15:22:02;28.90;42.20
1626;DHT22;806;48.770;9.156;2023-06-01T15:24:30;29.00;41.60
1626;DHT22;806;48.770;9.156;2023-06-01T15:26:56;28.90;42.10
1626;DHT22;806;48.770;9.156;2023-06-01T15:29:25;28.80;42.40
1626;DHT22;806;48.770;9.156;2023-06-01T15:31:52;28.80;42.20
1626;DHT22;806;48.770;9.156;2023-06-01T15:34:19;28.90;42.50
1626;DHT22;806;48.770;9.156;2023-06-01T15:36:46;28.80;42.10
1626;DHT22;806;48.770;9.156;2023-06-01T15:39:13;28.60;42.70
1626;DHT22;806;48.770;9.156;2023-06-01T15:41:41;28.50;42.70
1626;DHT22;806;48.770;9.156;2023-06-01T15:44:08;28.60;42.50
1626;DHT22;806;48.770;9.156;2023-06-01T15:46:36;28.50;42.40
1626;DHT22;806;48.770;9.156;2023-06-01T15:49:03;28.50;42.50
1626;DHT22;806;48.770;9.156;2023-06-01T15:51:30;28.40;42.10
1626;DHT22;806;48.770;9.156;2023-06-01T15:53:58;28.30;42.40
1626;DHT22;806;48.770;9.156;2023-06-01T15:56:25;28.40;42.50
1626;DHT22;806;48.770;9.156;2023-06-01T15:58:52;28.20;42.30
1626;DHT22;806;48.770;9.156;2023-06-01T16:01:19;28.10;42.10
1626;DHT22;806;48.770;9.156;2023-06-01T16:03:48;28.00;42.30
1626;DHT22;806;48.770;9.156;2023-06-01T16:06:15;28.10;42.10
1626;DHT22;806;48.770;9.156;2023-06-01T16:08:42;28.10;42.00
1626;DHT22;806;48.770;9.156;2023-06-01T16:11:09;28.10;42.40
1626;DHT22;806;48.770;9.156;2023-06-01T16:13:36;28.10;42.20
1626;DHT22;806;48.770;9.156;2023-06-01T16:16:03;28.10;41.90
1626;DHT22;806;48.770;9.156;2023-06-01T16:18:30;28.10;41.50
1626;DHT22;806;48.770;9.156;2023-06-01T16:20:58;27.80;42.90
1626;DHT22;806;48.770;9.156;2023-06-01T16:23:25;27.80;41.90
1626;DHT22;806;48.770;9.156;2023-06-01T16:25:53;27.80;42.10